createdAt,value
2022-08-30T00:02:11.715Z,58.58
2022-08-30T00:04:39.275Z,58.37
2022-08-30T00:07:06.128Z,58.25
2022-08-30T00:09:33.018Z,57.28
2022-08-30T00:11:59.885Z,58.15
2022-08-30T00:14:27.716Z,59.07
2022-08-30T00:16:54.639Z,58.63
2022-08-30T00:19:21.502Z,58.42
2022-08-30T00:21:48.287Z,56.87
2022-08-30T00:24:15.121Z,57.13
2022-08-30T00:26:41.920Z,57.94
2022-08-30T00:29:08.710Z,56.64
2022-08-30T00:31:35.498Z,57.99
2022-08-30T00:34:02.344Z,56.95
2022-08-30T00:36:29.502Z,57.94
2022-08-30T00:38:56.370Z,57.79
2022-08-30T00:41:23.230Z,58.15
2022-08-30T00:43:49.985Z,57.44
2022-08-30T00:46:16.824Z,57.43
2022-08-30T00:48:48.146Z,57.30
2022-08-30T00:51:16.136Z,58.16
2022-08-30T00:53:47.717Z,57.09
2022-08-30T00:56:15.415Z,57.25
2022-08-30T00:58:45.645Z,56.56
2022-08-30T01:01:13.567Z,56.25
2022-08-30T01:03:42.119Z,55.74
2022-08-30T01:06:09.249Z,56.71
2022-08-30T01:08:36.121Z,56.02
2022-08-30T01:11:04.419Z,56.36
2022-08-30T01:13:32.561Z,55.91
2022-08-30T01:16:02.675Z,56.03
2022-08-30T01:18:32.146Z,55.20
2022-08-30T01:21:07.827Z,55.60
2022-08-30T01:23:38.336Z,56.18
2022-08-30T01:26:06.161Z,57.21
2022-08-30T01:28:33.768Z,56.46
2022-08-30T01:31:01.812Z,57.26
2022-08-30T01:33:29.090Z,56.40
2022-08-30T01:36:04.126Z,56.49
2022-08-30T01:38:40.108Z,55.51
2022-08-30T01:41:33.334Z,54.60
2022-08-30T01:44:03.070Z,54.16
2022-08-30T01:46:38.834Z,54.46
2022-08-30T01:49:09.254Z,56.04
2022-08-30T01:51:36.654Z,55.47
2022-08-30T01:54:04.180Z,55.12
2022-08-30T01:56:31.040Z,56.38
2022-08-30T01:59:02.608Z,56.39
2022-08-30T02:01:32.433Z,56.67
2022-08-30T02:04:00.432Z,56.38
2022-08-30T02:06:27.553Z,56.10
2022-08-30T02:08:55.449Z,56.36
2022-08-30T02:11:22.348Z,56.54
2022-08-30T02:13:49.353Z,57.88
2022-08-30T02:16:19.170Z,57.00
2022-08-30T02:18:46.453Z,56.15
2022-08-30T02:21:13.914Z,56.52
2022-08-30T02:23:41.384Z,55.82
2022-08-30T02:26:08.991Z,57.31
2022-08-30T02:28:36.255Z,57.18
2022-08-30T02:31:18.085Z,57.67
2022-08-30T02:33:47.815Z,57.21
2022-08-30T02:36:15.514Z,58.45
2022-08-30T02:38:42.263Z,59.69
2022-08-30T02:41:09.158Z,59.03
2022-08-30T02:43:35.862Z,59.68
2022-08-30T02:46:02.727Z,59.88
2022-08-30T02:48:29.486Z,60.99
2022-08-30T02:50:56.745Z,59.70
2022-08-30T02:53:23.907Z,58.61
2022-08-30T02:55:53.004Z,58.44
2022-08-30T02:58:19.764Z,58.88
2022-08-30T03:00:46.516Z,58.75
2022-08-30T03:03:13.393Z,57.58
2022-08-30T03:05:40.184Z,56.95
2022-08-30T03:08:09.810Z,58.95
2022-08-30T03:10:36.566Z,60.44
2022-08-30T03:13:03.680Z,61.93
2022-08-30T03:15:30.467Z,60.32
2022-08-30T03:17:57.877Z,59.79
2022-08-30T03:20:25.214Z,63.29
2022-08-30T03:22:52.386Z,62.50
2022-08-30T03:25:20.938Z,61.71
2022-08-30T03:27:48.117Z,62.47
2022-08-30T03:30:14.971Z,63.36
2022-08-30T03:32:43.236Z,63.74
2022-08-30T03:35:10.769Z,65.11
2022-08-30T03:37:37.834Z,64.28
2022-08-30T03:40:07.646Z,64.49
2022-08-30T03:42:35.319Z,66.62
2022-08-30T03:45:05.121Z,64.04
2022-08-30T03:47:31.898Z,62.10
2022-08-30T03:49:58.680Z,60.91
2022-08-30T03:52:27.830Z,62.54
2022-08-30T03:54:55.060Z,62.12
2022-08-30T03:57:24.469Z,61.88
2022-08-30T03:59:51.902Z,62.71
2022-08-30T04:02:19.155Z,64.26
2022-08-30T04:04:45.981Z,63.99
2022-08-30T04:07:12.975Z,63.25
2022-08-30T04:09:39.757Z,64.10
2022-08-30T04:12:06.749Z,63.65
2022-08-30T04:14:33.548Z,63.82
2022-08-30T04:17:00.320Z,64.54
2022-08-30T04:19:27.146Z,65.65
2022-08-30T04:21:54.602Z,64.43
2022-08-30T04:24:21.346Z,65.31
2022-08-30T04:26:48.175Z,65.58
2022-08-30T04:29:17.819Z,66.24
2022-08-30T04:31:45.544Z,65.83
2022-08-30T04:34:13.631Z,66.20
2022-08-30T04:36:40.564Z,65.70
2022-08-30T04:39:07.588Z,63.88
2022-08-30T04:41:36.870Z,63.11
2022-08-30T04:44:04.048Z,61.64
2022-08-30T04:46:31.185Z,59.89
2022-08-30T04:48:57.912Z,59.32
2022-08-30T04:51:24.649Z,58.96
2022-08-30T04:53:51.494Z,57.81
2022-08-30T04:56:22.476Z,56.99
2022-08-30T04:58:51.863Z,57.97
2022-08-30T05:01:23.775Z,58.28
2022-08-30T05:03:52.615Z,57.68
2022-08-30T05:06:20.085Z,56.75
2022-08-30T05:08:47.556Z,56.79
2022-08-30T05:11:15.732Z,56.17
2022-08-30T05:13:43.842Z,56.34
2022-08-30T05:16:11.070Z,54.42
2022-08-30T05:18:37.921Z,54.68
2022-08-30T05:21:07.622Z,53.93
2022-08-30T05:23:35.243Z,52.07
2022-08-30T05:26:16.090Z,49.36
2022-08-30T05:28:43.378Z,47.46
2022-08-30T05:31:22.469Z,46.70
2022-08-30T05:33:50.853Z,45.58
2022-08-30T05:36:19.392Z,43.69
2022-08-30T05:38:46.490Z,42.35
2022-08-30T05:41:13.438Z,42.85
2022-08-30T05:43:40.815Z,41.93
2022-08-30T05:46:11.085Z,40.16
2022-08-30T05:48:39.093Z,39.49
2022-08-30T05:51:11.702Z,40.39
2022-08-30T05:53:39.619Z,40.12
2022-08-30T05:56:11.298Z,40.37
2022-08-30T05:58:38.671Z,40.06
2022-08-30T06:01:05.996Z,39.27
2022-08-30T06:03:33.579Z,39.97
2022-08-30T06:06:01.124Z,38.70
2022-08-30T06:08:27.980Z,38.07
2022-08-30T06:10:55.152Z,37.81
2022-08-30T06:13:22.513Z,38.08
2022-08-30T06:15:49.803Z,38.01
2022-08-30T06:18:16.963Z,39.03
2022-08-30T06:20:51.412Z,37.54
2022-08-30T06:23:18.290Z,37.30
2022-08-30T06:25:45.498Z,36.63
2022-08-30T06:28:12.899Z,37.03
2022-08-30T06:30:41.344Z,37.18
2022-08-30T06:33:08.123Z,36.86
2022-08-30T06:35:42.181Z,37.01
2022-08-30T06:38:13.792Z,38.34
2022-08-30T06:40:40.625Z,37.45
2022-08-30T06:43:07.464Z,36.67
2022-08-30T06:45:35.544Z,37.91
2022-08-30T06:48:02.648Z,37.99
2022-08-30T06:50:29.827Z,37.88
2022-08-30T06:52:57.771Z,37.83
2022-08-30T06:55:24.616Z,37.75
2022-08-30T06:57:51.431Z,37.87
2022-08-30T07:00:18.441Z,39.17
2022-08-30T07:02:45.435Z,40.06
2022-08-30T07:05:17.999Z,40.17
2022-08-30T07:07:45.549Z,40.34
2022-08-30T07:10:12.341Z,41.67
2022-08-30T07:12:39.041Z,39.85
2022-08-30T07:15:08.006Z,38.87
2022-08-30T07:17:54.236Z,39.24
2022-08-30T07:20:21.763Z,37.95
2022-08-30T07:22:48.970Z,38.10
2022-08-30T07:25:16.652Z,37.53
2022-08-30T07:27:46.773Z,38.66
2022-08-30T07:30:14.324Z,38.56
2022-08-30T07:32:41.266Z,36.40
2022-08-30T07:35:08.493Z,35.56
2022-08-30T07:37:35.683Z,36.17
2022-08-30T07:40:04.200Z,37.91
2022-08-30T07:42:31.043Z,35.00
2022-08-30T07:44:57.915Z,36.79
2022-08-30T07:47:24.848Z,36.87
2022-08-30T07:49:51.772Z,37.74
2022-08-30T07:52:18.589Z,36.92
2022-08-30T07:54:45.382Z,37.92
2022-08-30T07:57:12.662Z,38.75
2022-08-30T07:59:43.191Z,37.79
2022-08-30T08:02:10.160Z,35.53
2022-08-30T08:04:37.075Z,36.98
2022-08-30T08:07:05.432Z,36.07
2022-08-30T08:09:34.171Z,35.42
2022-08-30T08:12:03.765Z,36.11
2022-08-30T08:14:32.858Z,35.53
2022-08-30T08:17:00.254Z,35.13
2022-08-30T08:19:27.398Z,35.45
2022-08-30T08:22:21.011Z,36.25
2022-08-30T08:24:47.912Z,34.06
2022-08-30T08:27:14.757Z,34.18
2022-08-30T08:29:43.994Z,36.36
2022-08-30T08:32:11.324Z,35.66
2022-08-30T08:34:38.279Z,32.79
2022-08-30T08:37:08.255Z,32.06
2022-08-30T08:39:36.952Z,34.04
2022-08-30T08:42:24.033Z,33.42
2022-08-30T08:45:13.203Z,30.20
2022-08-30T08:48:01.572Z,32.58
2022-08-30T08:50:32.245Z,31.34
2022-08-30T08:53:46.299Z,34.37
2022-08-30T08:56:17.658Z,33.01
2022-08-30T08:58:54.534Z,31.38
2022-08-30T09:01:28.275Z,33.52
2022-08-30T09:03:58.443Z,31.42
2022-08-30T09:06:45.109Z,31.57
2022-08-30T09:09:14.879Z,31.91
2022-08-30T09:11:44.286Z,34.08
2022-08-30T09:14:19.322Z,33.93
2022-08-30T09:16:52.052Z,34.31
2022-08-30T09:19:41.493Z,32.36
2022-08-30T09:22:22.653Z,31.73
2022-08-30T09:24:55.575Z,32.70
2022-08-30T09:27:31.734Z,32.25
2022-08-30T09:30:02.011Z,33.44
2022-08-30T09:32:32.793Z,32.19
2022-08-30T09:35:00.166Z,31.89
2022-08-30T09:37:46.189Z,32.42
2022-08-30T09:40:17.560Z,32.18
2022-08-30T09:43:01.955Z,34.08
2022-08-30T09:45:33.853Z,32.86
2022-08-30T09:48:00.985Z,33.91
2022-08-30T09:50:37.895Z,30.98
2022-08-30T09:53:23.328Z,34.01
2022-08-30T09:56:15.822Z,32.49
2022-08-30T09:59:10.784Z,32.15
2022-08-30T10:01:43.487Z,32.94
2022-08-30T10:04:19.373Z,34.95
2022-08-30T10:06:54.402Z,35.10
2022-08-30T10:09:36.474Z,34.85
2022-08-30T10:12:12.883Z,32.55
2022-08-30T10:14:48.945Z,34.37
2022-08-30T10:17:56.220Z,30.53
2022-08-30T10:20:44.103Z,30.65
2022-08-30T10:23:22.689Z,29.75
2022-08-30T10:26:00.296Z,30.18
2022-08-30T10:28:38.018Z,30.38
2022-08-30T10:31:42.792Z,30.58
2022-08-30T10:34:20.930Z,30.55
2022-08-30T10:37:01.110Z,31.75
2022-08-30T10:39:34.078Z,31.42
2022-08-30T10:42:13.877Z,30.99
2022-08-30T10:44:45.667Z,30.51
2022-08-30T10:47:29.232Z,29.45
2022-08-30T10:50:04.938Z,29.58
2022-08-30T10:52:54.800Z,30.81
2022-08-30T10:55:26.991Z,30.54
2022-08-30T10:57:54.109Z,29.30
2022-08-30T11:00:33.819Z,28.69
2022-08-30T11:03:19.874Z,28.57
2022-08-30T11:06:36.524Z,30.98
2022-08-30T11:09:29.009Z,27.77
2022-08-30T11:12:16.111Z,27.36
2022-08-30T11:14:46.543Z,29.83
2022-08-30T11:17:40.878Z,30.01
2022-08-30T11:20:28.360Z,30.24
2022-08-30T11:23:33.019Z,32.33
2022-08-30T11:26:18.410Z,30.93
2022-08-30T11:28:47.361Z,31.34
2022-08-30T11:31:20.374Z,29.71
2022-08-30T11:33:59.061Z,29.54
2022-08-30T11:36:37.304Z,30.04
2022-08-30T11:39:08.649Z,31.03
2022-08-30T11:41:43.147Z,26.01
2022-08-30T11:44:24.259Z,26.25
2022-08-30T11:46:55.278Z,26.97
2022-08-30T11:49:25.077Z,25.08
2022-08-30T11:52:28.492Z,23.74
2022-08-30T11:55:33.164Z,26.39
2022-08-30T11:58:11.499Z,23.68
2022-08-30T12:00:52.510Z,22.83
2022-08-30T12:03:22.331Z,23.88
2022-08-30T12:05:59.884Z,24.19
2022-08-30T12:08:36.241Z,25.12
2022-08-30T12:11:10.789Z,27.50
2022-08-30T12:13:37.756Z,24.72
2022-08-30T12:16:30.492Z,23.88
2022-08-30T12:19:10.172Z,24.95
2022-08-30T12:21:44.162Z,25.32
2022-08-30T12:24:24.126Z,27.50
2022-08-30T12:26:52.719Z,24.34
2022-08-30T12:29:24.607Z,23.46
2022-08-30T12:31:58.136Z,24.15
2022-08-30T12:34:36.420Z,24.65
2022-08-30T12:37:05.240Z,25.64
2022-08-30T12:39:43.983Z,26.88
2022-08-30T12:42:26.999Z,26.97
2022-08-30T12:45:05.220Z,26.59
2022-08-30T12:47:44.758Z,28.63
2022-08-30T12:50:17.363Z,27.76
2022-08-30T12:52:47.059Z,27.58
2022-08-30T12:55:23.900Z,29.25
2022-08-30T12:58:10.933Z,29.53
2022-08-30T13:00:37.962Z,29.66
2022-08-30T13:03:24.810Z,29.53
2022-08-30T13:05:53.151Z,29.30
2022-08-30T13:08:42.957Z,26.74
2022-08-30T13:11:25.120Z,25.52
2022-08-30T13:14:18.537Z,24.52
2022-08-30T13:16:46.348Z,26.94
2022-08-30T13:19:22.889Z,25.51
2022-08-30T13:21:58.718Z,27.45
2022-08-30T13:24:26.179Z,26.20
2022-08-30T13:26:55.858Z,26.10
2022-08-30T13:29:27.086Z,26.84
2022-08-30T13:31:55.354Z,27.51
2022-08-30T13:34:23.048Z,26.82
2022-08-30T13:36:54.393Z,26.78
2022-08-30T13:39:21.954Z,27.40
2022-08-30T13:41:49.303Z,27.69
2022-08-30T13:44:16.747Z,27.21
2022-08-30T13:46:52.529Z,28.63
2022-08-30T13:49:45.760Z,27.14
2022-08-30T13:52:21.691Z,27.88
2022-08-30T13:54:56.608Z,28.62
2022-08-30T14:00:19.434Z,29.43
2022-08-30T14:02:53.915Z,28.84
2022-08-30T14:05:48.915Z,29.46
2022-08-30T14:11:18.660Z,32.52
2022-08-30T14:16:36.443Z,33.44
2022-08-30T14:19:03.607Z,34.71
2022-08-30T14:21:32.847Z,34.29
2022-08-30T14:23:59.929Z,33.05
2022-08-30T14:26:35.208Z,32.73
2022-08-30T14:29:08.966Z,31.57
2022-08-30T14:31:37.353Z,31.19
2022-08-30T14:34:05.524Z,31.89
2022-08-30T14:36:35.057Z,32.24
2022-08-30T14:39:06.285Z,32.43
2022-08-30T14:41:43.441Z,32.03
2022-08-30T14:44:12.262Z,29.92
2022-08-30T14:46:39.058Z,29.15
2022-08-30T14:49:07.520Z,30.60
2022-08-30T14:51:37.075Z,29.53
2022-08-30T14:54:04.548Z,28.56
2022-08-30T14:56:31.563Z,28.88
2022-08-30T14:59:00.761Z,30.83
2022-08-30T15:01:28.029Z,32.10
2022-08-30T15:03:54.939Z,30.78
2022-08-30T15:06:22.797Z,29.69
2022-08-30T15:08:53.539Z,30.53
2022-08-30T15:11:21.816Z,30.06
2022-08-30T15:13:48.955Z,29.96
2022-08-30T15:16:29.496Z,30.04
2022-08-30T15:18:58.244Z,28.74
2022-08-30T15:21:31.214Z,29.12
2022-08-30T15:24:02.226Z,29.48
2022-08-30T15:26:29.493Z,30.56
2022-08-30T15:28:57.052Z,30.28
2022-08-30T15:31:28.320Z,29.65
2022-08-30T15:33:55.370Z,31.28
2022-08-30T15:36:24.270Z,30.21
2022-08-30T15:38:52.819Z,30.47
2022-08-30T15:41:19.544Z,30.22
2022-08-30T15:43:46.737Z,32.20
2022-08-30T15:46:25.703Z,31.31
2022-08-30T15:49:01.298Z,31.02
2022-08-30T15:51:30.655Z,30.86
2022-08-30T15:53:58.290Z,30.51
2022-08-30T15:56:25.861Z,31.20
2022-08-30T15:58:53.043Z,30.98
2022-08-30T16:01:30.063Z,30.51
2022-08-30T16:03:57.443Z,30.35
2022-08-30T16:06:28.276Z,30.58
2022-08-30T16:08:56.098Z,31.23
2022-08-30T16:11:25.259Z,32.28
2022-08-30T16:13:53.608Z,32.34
2022-08-30T16:16:21.382Z,31.65
2022-08-30T16:18:53.695Z,31.68
2022-08-30T16:21:30.439Z,31.23
2022-08-30T16:24:00.720Z,31.67
2022-08-30T16:26:29.069Z,31.70
2022-08-30T16:28:56.605Z,31.45
2022-08-30T16:31:24.525Z,31.95
2022-08-30T16:33:53.176Z,31.65
2022-08-30T16:36:22.798Z,32.97
2022-08-30T16:38:53.451Z,32.67
2022-08-30T16:41:22.510Z,33.23
2022-08-30T16:43:53.148Z,32.66
2022-08-30T16:46:27.339Z,32.82
2022-08-30T16:48:57.448Z,32.54
2022-08-30T16:51:27.167Z,32.65
2022-08-30T16:53:58.906Z,32.60
2022-08-30T16:56:27.535Z,32.56
2022-08-30T16:59:02.040Z,32.94
2022-08-30T17:01:34.809Z,32.93
2022-08-30T17:04:02.879Z,33.16
2022-08-30T17:06:29.980Z,32.88
2022-08-30T17:08:57.143Z,32.67
2022-08-30T17:11:24.967Z,32.98
2022-08-30T17:13:52.276Z,33.06
2022-08-30T17:16:22.645Z,33.23
2022-08-30T17:18:55.870Z,33.45
2022-08-30T17:21:27.171Z,33.27
2022-08-30T17:23:53.977Z,33.28
2022-08-30T17:26:25.296Z,33.65
2022-08-30T17:28:53.137Z,33.43
2022-08-30T17:31:20.774Z,33.53
2022-08-30T17:33:49.246Z,33.34
2022-08-30T17:36:16.756Z,33.93
2022-08-30T17:38:45.058Z,33.89
2022-08-30T17:41:13.199Z,33.93
2022-08-30T17:43:40.291Z,33.93
2022-08-30T17:46:20.756Z,34.03
2022-08-30T17:48:47.803Z,34.00
2022-08-30T17:51:24.836Z,34.11
2022-08-30T17:53:51.677Z,34.44
2022-08-30T17:56:18.827Z,34.81
2022-08-30T17:58:47.199Z,34.57
2022-08-30T18:01:15.674Z,35.34
2022-08-30T18:03:45.558Z,35.60
2022-08-30T18:06:14.102Z,34.99
2022-08-30T18:08:41.018Z,35.35
2022-08-30T18:11:08.725Z,35.05
2022-08-30T18:13:35.633Z,35.28
2022-08-30T18:16:03.809Z,35.47
2022-08-30T18:18:31.541Z,35.73
2022-08-30T18:20:59.042Z,35.76
2022-08-30T18:23:27.131Z,36.01
2022-08-30T18:26:00.033Z,37.10
2022-08-30T18:28:27.850Z,42.94
2022-08-30T18:30:57.136Z,41.29
2022-08-30T18:33:28.607Z,41.71
2022-08-30T18:35:55.814Z,42.57
2022-08-30T18:38:25.325Z,41.93
2022-08-30T18:41:01.964Z,42.03
2022-08-30T18:43:30.559Z,42.44
2022-08-30T18:46:02.573Z,41.80
2022-08-30T18:48:30.311Z,41.74
2022-08-30T18:50:57.300Z,41.25
2022-08-30T18:56:12.414Z,41.23
2022-08-30T18:58:44.559Z,39.97
2022-08-30T19:01:12.903Z,40.05
2022-08-30T19:03:40.828Z,39.15
2022-08-30T19:06:12.025Z,42.65
2022-08-30T19:08:40.487Z,41.75
2022-08-30T19:11:09.136Z,41.56
2022-08-30T19:13:37.374Z,42.28
2022-08-30T19:16:06.910Z,42.18
2022-08-30T19:18:33.788Z,42.00
2022-08-30T19:21:04.387Z,42.50
2022-08-30T19:23:34.445Z,42.41
2022-08-30T19:26:01.627Z,43.19
2022-08-30T19:28:28.813Z,43.19
2022-08-30T19:30:55.719Z,43.03
2022-08-30T19:33:22.735Z,44.05
2022-08-30T19:35:51.356Z,43.38
2022-08-30T19:38:19.023Z,43.94
2022-08-30T19:40:53.890Z,42.49
2022-08-30T19:43:21.527Z,41.42
2022-08-30T19:45:53.878Z,42.22
2022-08-30T19:48:22.295Z,42.79
2022-08-30T19:50:49.664Z,43.98
2022-08-30T19:53:17.023Z,44.12
2022-08-30T19:55:44.308Z,44.28
2022-08-30T19:58:14.296Z,46.04
2022-08-30T20:00:54.201Z,45.46
2022-08-30T20:03:23.014Z,45.06
2022-08-30T20:05:49.897Z,45.17
2022-08-30T20:08:16.740Z,44.18
2022-08-30T20:10:44.812Z,44.54
2022-08-30T20:13:11.675Z,44.84
2022-08-30T20:15:38.767Z,44.07
2022-08-30T20:18:14.419Z,42.87
2022-08-30T20:20:49.496Z,41.88
2022-08-30T20:23:21.553Z,44.18
2022-08-30T20:24:29.671Z,41.77
2022-08-30T20:25:55.730Z,44.07
2022-08-30T20:28:24.781Z,44.24
2022-08-30T20:30:52.492Z,44.65
2022-08-30T20:33:20.890Z,43.73
2022-08-30T20:35:49.531Z,43.57
2022-08-30T20:38:21.501Z,44.07
2022-08-30T20:40:51.275Z,44.07
2022-08-30T20:43:21.032Z,45.00
2022-08-30T20:45:48.527Z,45.10
2022-08-30T20:48:15.993Z,44.82
2022-08-30T20:50:43.321Z,44.39
2022-08-30T20:53:10.893Z,45.07
2022-08-30T20:55:46.311Z,44.52
2022-08-30T20:58:14.624Z,46.19
2022-08-30T21:00:45.672Z,46.75
2022-08-30T21:03:25.888Z,48.92
2022-08-30T21:05:55.357Z,50.01
2022-08-30T21:08:22.400Z,50.28
2022-08-30T21:10:49.321Z,49.72
2022-08-30T21:13:16.093Z,49.49
2022-08-30T21:15:46.231Z,49.19
2022-08-30T21:18:14.575Z,49.22
2022-08-30T21:20:42.186Z,49.66
2022-08-30T21:23:09.167Z,49.54
2022-08-30T21:25:39.143Z,49.25
2022-08-30T21:28:07.178Z,49.63
2022-08-30T21:30:35.599Z,49.53
2022-08-30T21:33:06.972Z,49.48
2022-08-30T21:35:53.318Z,49.29
2022-08-30T21:38:20.405Z,49.73
2022-08-30T21:40:48.668Z,50.73
2022-08-30T21:43:15.820Z,50.44
2022-08-30T21:45:44.777Z,49.57
2022-08-30T21:48:13.257Z,50.41
2022-08-30T21:50:45.813Z,50.75
2022-08-30T21:53:15.385Z,51.64
2022-08-30T21:55:43.959Z,50.64
2022-08-30T21:58:11.261Z,50.18
2022-08-30T22:00:38.044Z,49.79
2022-08-30T22:03:04.885Z,51.82
2022-08-30T22:05:31.733Z,51.62
2022-08-30T22:07:58.714Z,50.91
2022-08-30T22:10:28.109Z,50.15
2022-08-30T22:12:56.784Z,49.79
2022-08-30T22:15:24.244Z,49.63
2022-08-30T22:17:53.649Z,50.23
2022-08-30T22:20:20.384Z,50.36
2022-08-30T22:22:47.545Z,49.46
2022-08-30T22:25:14.345Z,48.23
2022-08-30T22:27:41.127Z,48.09
2022-08-30T22:30:08.313Z,48.09
2022-08-30T22:32:38.005Z,47.99
2022-08-30T22:35:05.143Z,48.04
2022-08-30T22:37:32.408Z,48.70
2022-08-30T22:39:59.206Z,48.69
2022-08-30T22:42:26.055Z,48.09
2022-08-30T22:44:52.873Z,47.80
2022-08-30T22:47:19.606Z,48.76
2022-08-30T22:49:46.406Z,49.43
2022-08-30T22:52:14.477Z,50.49
2022-08-30T22:54:41.347Z,49.01
2022-08-30T22:57:08.185Z,48.96
2022-08-30T22:59:35.734Z,48.32
2022-08-30T23:02:02.708Z,47.96
2022-08-30T23:04:30.148Z,48.48
2022-08-30T23:06:56.990Z,49.75
2022-08-30T23:09:23.719Z,50.12
2022-08-30T23:11:50.506Z,49.38
2022-08-30T23:14:17.306Z,48.38
2022-08-30T23:16:44.190Z,50.07
2022-08-30T23:19:10.991Z,49.23
2022-08-30T23:21:37.936Z,51.16
2022-08-30T23:24:23.506Z,52.87
2022-08-30T23:27:09.196Z,53.94
2022-08-30T23:29:55.079Z,54.74
2022-08-30T23:32:41.197Z,53.98
2022-08-30T23:35:29.837Z,51.58
2022-08-30T23:38:19.213Z,51.21
2022-08-30T23:41:04.812Z,53.76
2022-08-30T23:43:50.511Z,52.11
2022-08-30T23:46:36.091Z,52.11
2022-08-30T23:49:21.641Z,52.20
2022-08-30T23:52:07.339Z,51.10
2022-08-30T23:54:57.340Z,52.23
2022-08-30T23:57:43.459Z,50.73
